createdAt,value
2018-10-11T00:01:34.231Z,24.97
2018-10-11T00:04:03.287Z,22.00
2018-10-11T00:06:32.053Z,20.70
2018-10-11T00:09:00.902Z,21.00
2018-10-11T00:11:29.773Z,20.00
2018-10-11T00:13:58.498Z,27.60
2018-10-11T00:16:27.244Z,24.17
2018-10-11T00:18:56.032Z,20.73
2018-10-11T00:21:24.823Z,20.47
2018-10-11T00:23:53.680Z,21.90
2018-10-11T00:26:22.576Z,21.07
2018-10-11T00:28:51.351Z,20.83
2018-10-11T00:31:20.108Z,20.77
2018-10-11T00:33:48.784Z,20.43
2018-10-11T00:36:17.504Z,21.07
2018-10-11T00:38:46.287Z,20.00
2018-10-11T00:41:14.991Z,19.47
2018-10-11T00:43:43.711Z,19.80
2018-10-11T00:46:12.402Z,20.87
2018-10-11T00:48:41.130Z,20.20
2018-10-11T00:51:09.969Z,22.13
2018-10-11T00:53:38.840Z,22.40
2018-10-11T00:56:07.720Z,21.33
2018-10-11T00:58:36.425Z,20.70
2018-10-11T01:01:05.180Z,20.37
2018-10-11T01:03:33.933Z,20.47
2018-10-11T01:06:02.650Z,23.53
2018-10-11T01:08:31.332Z,32.80
2018-10-11T01:11:00.126Z,22.73
2018-10-11T01:13:28.812Z,21.23
2018-10-11T01:15:57.588Z,18.30
2018-10-11T01:18:26.499Z,19.23
2018-10-11T01:20:55.460Z,21.30
2018-10-11T01:23:24.160Z,18.70
2018-10-11T01:25:52.829Z,18.20
2018-10-11T01:28:21.480Z,18.10
2018-10-11T01:30:55.577Z,18.63
2018-10-11T01:33:24.336Z,17.33
2018-10-11T01:35:53.104Z,19.13
2018-10-11T01:38:21.920Z,17.93
2018-10-11T01:40:50.715Z,18.47
2018-10-11T01:43:19.470Z,17.80
2018-10-11T01:45:48.234Z,18.33
2018-10-11T01:48:16.934Z,18.40
2018-10-11T01:50:45.734Z,19.27
2018-10-11T01:53:14.547Z,19.57
2018-10-11T01:55:43.332Z,21.50
2018-10-11T01:58:12.021Z,19.80
2018-10-11T02:00:40.719Z,19.80
2018-10-11T02:03:09.460Z,19.13
2018-10-11T02:05:38.126Z,19.83
2018-10-11T02:08:07.080Z,19.30
2018-10-11T02:10:35.774Z,18.90
2018-10-11T02:13:04.487Z,19.20
2018-10-11T02:15:33.227Z,19.77
2018-10-11T02:18:01.908Z,19.73
2018-10-11T02:20:30.613Z,20.33
2018-10-11T02:22:59.268Z,19.67
2018-10-11T02:25:27.984Z,19.80
2018-10-11T02:27:56.702Z,19.83
2018-10-11T02:30:25.424Z,20.00
2018-10-11T02:32:54.217Z,20.83
2018-10-11T02:35:22.896Z,21.77
2018-10-11T02:37:51.614Z,20.87
2018-10-11T02:40:20.290Z,20.80
2018-10-11T02:42:48.995Z,20.67
2018-10-11T02:45:17.678Z,20.67
2018-10-11T02:47:46.422Z,21.70
2018-10-11T02:50:15.156Z,23.80
2018-10-11T02:52:43.862Z,22.90
2018-10-11T02:55:22.511Z,24.07
2018-10-11T02:58:03.017Z,22.70
2018-10-11T03:00:32.859Z,22.13
2018-10-11T03:03:02.649Z,22.17
2018-10-11T03:05:33.927Z,22.40
2018-10-11T03:08:02.750Z,23.93
2018-10-11T03:10:31.535Z,23.47
2018-10-11T03:13:00.364Z,22.13
2018-10-11T03:15:29.097Z,22.73
2018-10-11T03:17:57.825Z,23.17
2018-10-11T03:20:26.529Z,25.00
2018-10-11T03:22:55.265Z,23.43
2018-10-11T03:25:23.948Z,24.27
2018-10-11T03:27:52.608Z,22.93
2018-10-11T03:30:21.355Z,23.30
2018-10-11T03:32:50.041Z,26.53
2018-10-11T03:35:18.759Z,27.17
2018-10-11T03:37:47.411Z,23.47
2018-10-11T03:40:16.067Z,25.10
2018-10-11T03:42:44.752Z,23.50
2018-10-11T03:45:13.416Z,23.37
2018-10-11T03:47:42.102Z,25.53
2018-10-11T03:50:10.721Z,23.73
2018-10-11T03:52:39.466Z,22.83
2018-10-11T03:55:08.109Z,24.43
2018-10-11T03:57:36.772Z,23.97
2018-10-11T04:00:06.350Z,24.87
2018-10-11T04:02:35.025Z,25.67
2018-10-11T04:05:03.731Z,25.27
2018-10-11T04:07:32.475Z,23.50
2018-10-11T04:10:01.135Z,23.70
2018-10-11T04:12:30.083Z,22.77
2018-10-11T04:14:58.796Z,24.10
2018-10-11T04:17:27.476Z,26.40
2018-10-11T04:19:56.255Z,26.03
2018-10-11T04:22:24.935Z,24.53
2018-10-11T04:24:53.742Z,24.40
2018-10-11T04:27:22.394Z,25.80
2018-10-11T04:29:51.436Z,24.40
2018-10-11T04:32:20.120Z,26.10
2018-10-11T04:34:48.810Z,27.60
2018-10-11T04:37:17.438Z,25.80
2018-10-11T04:39:46.145Z,24.77
2018-10-11T04:42:14.961Z,25.10
2018-10-11T04:44:43.687Z,26.17
2018-10-11T04:47:12.464Z,23.57
2018-10-11T04:49:41.216Z,24.50
2018-10-11T04:52:09.913Z,24.67
2018-10-11T04:54:38.588Z,24.43
2018-10-11T04:57:07.266Z,25.03
2018-10-11T04:59:36.098Z,27.07
2018-10-11T05:02:04.769Z,26.20
2018-10-11T05:04:33.482Z,24.87
2018-10-11T05:07:02.197Z,26.40
2018-10-11T05:09:30.914Z,25.80
2018-10-11T05:11:59.622Z,26.07
2018-10-11T05:14:28.345Z,27.77
2018-10-11T05:16:57.040Z,26.23
2018-10-11T05:19:25.829Z,25.03
2018-10-11T05:21:54.845Z,24.10
2018-10-11T05:24:23.550Z,26.17
2018-10-11T05:26:52.232Z,28.13
2018-10-11T05:29:20.869Z,26.13
2018-10-11T05:31:49.633Z,25.90
2018-10-11T05:34:18.339Z,24.80
2018-10-11T05:36:47.071Z,26.87
2018-10-11T05:39:15.768Z,25.73
2018-10-11T05:41:44.517Z,26.27
2018-10-11T05:44:13.391Z,26.73
2018-10-11T05:46:42.182Z,26.90
2018-10-11T05:49:11.013Z,26.80
2018-10-11T05:51:39.808Z,25.97
2018-10-11T05:54:08.994Z,25.07
2018-10-11T05:56:40.766Z,26.67
2018-10-11T05:59:09.679Z,25.67
2018-10-11T06:01:38.838Z,25.77
2018-10-11T06:04:09.131Z,25.47
2018-10-11T06:06:37.847Z,26.63
2018-10-11T06:09:08.343Z,24.97
2018-10-11T06:11:37.151Z,21.97
2018-10-11T06:14:05.956Z,21.30
2018-10-11T06:16:35.027Z,24.93
2018-10-11T06:19:03.918Z,24.00
2018-10-11T06:21:32.713Z,22.63
2018-10-11T06:24:01.559Z,21.07
2018-10-11T06:26:30.349Z,19.97
2018-10-11T06:28:59.261Z,19.53
2018-10-11T06:31:28.234Z,22.17
2018-10-11T06:33:57.110Z,21.40
2018-10-11T06:36:26.170Z,21.80
2018-10-11T06:38:56.880Z,24.07
2018-10-11T06:41:25.718Z,27.17
2018-10-11T06:43:54.574Z,28.63
2018-10-11T06:46:23.338Z,28.77
2018-10-11T06:48:52.219Z,25.07
2018-10-11T06:51:21.082Z,25.87
2018-10-11T06:53:50.953Z,24.67
2018-10-11T06:56:19.992Z,24.23
2018-10-11T06:58:48.665Z,24.10
2018-10-11T07:01:17.376Z,23.67
2018-10-11T07:03:46.082Z,23.60
2018-10-11T07:06:14.837Z,24.20
2018-10-11T07:08:44.501Z,24.23
2018-10-11T07:11:13.175Z,26.53
2018-10-11T07:13:42.014Z,25.07
2018-10-11T07:16:10.803Z,24.40
2018-10-11T07:18:39.525Z,22.37
2018-10-11T07:21:08.288Z,24.30
2018-10-11T07:23:36.949Z,25.07
2018-10-11T07:26:05.656Z,24.10
2018-10-11T07:28:34.706Z,30.77
2018-10-11T07:31:03.390Z,26.70
2018-10-11T07:33:32.109Z,25.33
2018-10-11T07:36:00.786Z,27.03
2018-10-11T07:38:29.542Z,23.97
2018-10-11T07:40:58.294Z,25.20
2018-10-11T07:43:26.942Z,27.37
2018-10-11T07:45:55.577Z,27.80
2018-10-11T07:48:24.189Z,26.67
2018-10-11T07:50:59.861Z,29.23
2018-10-11T07:53:28.534Z,29.42
2018-10-11T07:55:57.201Z,31.95
2018-10-11T07:58:25.817Z,28.02
2018-10-11T08:00:54.513Z,28.55
2018-10-11T08:03:23.560Z,27.62
2018-10-11T08:05:52.351Z,29.25
2018-10-11T08:08:21.045Z,26.93
2018-10-11T08:10:49.882Z,27.30
2018-10-11T08:13:18.769Z,26.80
2018-10-11T08:15:47.853Z,26.37
2018-10-11T08:18:16.532Z,26.90
2018-10-11T08:20:45.249Z,25.55
2018-10-11T08:23:13.997Z,27.82
2018-10-11T08:25:42.881Z,24.60
2018-10-11T08:28:11.758Z,22.73
2018-10-11T08:30:41.474Z,23.42
2018-10-11T08:33:10.063Z,22.30
2018-10-11T08:35:38.718Z,21.52
2018-10-11T08:38:08.257Z,21.05
2018-10-11T08:40:36.830Z,21.30
2018-10-11T08:43:05.552Z,19.67
2018-10-11T08:45:34.308Z,17.12
2018-10-11T08:48:03.141Z,18.02
2018-10-11T08:50:31.913Z,17.95
2018-10-11T08:53:00.650Z,20.50
2018-10-11T08:55:29.543Z,18.95
2018-10-11T08:57:58.277Z,18.45
2018-10-11T09:00:27.115Z,18.48
2018-10-11T09:02:56.123Z,19.30
2018-10-11T09:05:24.765Z,18.80
2018-10-11T09:07:53.486Z,20.57
2018-10-11T09:10:22.167Z,20.07
2018-10-11T09:12:50.888Z,19.33
2018-10-11T09:17:57.446Z,18.97
2018-10-11T09:20:26.166Z,18.87
2018-10-11T09:22:54.957Z,17.92
2018-10-11T09:25:23.649Z,18.05
2018-10-11T09:27:52.353Z,18.10
2018-10-11T09:30:21.103Z,17.15
2018-10-11T09:32:49.790Z,16.23
2018-10-11T09:35:19.478Z,17.07
2018-10-11T09:37:48.429Z,17.60
2018-10-11T09:40:18.498Z,16.53
2018-10-11T09:42:47.250Z,16.43
2018-10-11T09:45:15.898Z,16.37
2018-10-11T09:47:44.734Z,17.10
2018-10-11T09:50:13.405Z,15.57
2018-10-11T09:52:42.137Z,15.50
2018-10-11T09:55:11.113Z,16.70
2018-10-11T09:57:39.975Z,14.80
2018-10-11T10:00:16.098Z,15.57
2018-10-11T10:02:45.445Z,15.90
2018-10-11T10:05:14.208Z,14.70
2018-10-11T10:07:42.942Z,14.87
2018-10-11T10:10:11.666Z,14.60
2018-10-11T10:12:40.361Z,16.63
2018-10-11T10:15:09.048Z,14.67
2018-10-11T10:17:37.808Z,15.30
2018-10-11T10:20:06.669Z,13.83
2018-10-11T10:22:35.381Z,12.77
2018-10-11T10:25:04.154Z,12.27
2018-10-11T10:27:33.280Z,12.83
2018-10-11T10:30:06.100Z,13.33
2018-10-11T10:32:34.737Z,13.87
2018-10-11T10:35:03.442Z,14.07
2018-10-11T10:37:32.292Z,14.93
2018-10-11T10:40:01.158Z,15.53
2018-10-11T10:42:29.809Z,15.72
2018-10-11T10:44:58.546Z,14.18
2018-10-11T10:47:27.331Z,14.83
2018-10-11T10:49:55.942Z,15.80
2018-10-11T10:52:26.645Z,14.63
2018-10-11T10:54:55.273Z,14.83
2018-10-11T10:57:23.877Z,15.75
2018-10-11T10:59:53.430Z,15.00
2018-10-11T11:02:22.105Z,15.00
2018-10-11T11:04:50.909Z,15.33
2018-10-11T11:07:27.812Z,14.53
2018-10-11T11:09:56.585Z,14.50
2018-10-11T11:12:25.218Z,15.70
2018-10-11T11:14:53.949Z,15.57
2018-10-11T11:17:22.768Z,14.13
2018-10-11T11:19:51.462Z,13.10
2018-10-11T11:22:20.218Z,12.90
2018-10-11T11:24:48.859Z,12.57
2018-10-11T11:27:17.569Z,13.13
2018-10-11T11:29:46.213Z,13.00
2018-10-11T11:32:14.939Z,13.60
2018-10-11T11:34:43.597Z,12.73
2018-10-11T11:37:12.327Z,12.47
2018-10-11T11:39:41.095Z,13.00
2018-10-11T11:42:09.846Z,12.05
2018-10-11T11:44:38.568Z,11.90
2018-10-11T11:47:07.422Z,13.10
2018-10-11T11:49:36.118Z,12.30
2018-10-11T11:52:04.910Z,12.15
2018-10-11T11:54:33.641Z,11.95
2018-10-11T11:57:02.477Z,11.50
2018-10-11T11:59:31.172Z,11.03
2018-10-11T12:02:00.039Z,11.63
2018-10-11T12:04:28.725Z,10.45
2018-10-11T12:06:57.487Z,11.50
2018-10-11T12:09:26.149Z,10.90
2018-10-11T12:11:54.961Z,11.20
2018-10-11T12:14:23.656Z,10.72
2018-10-11T12:16:52.305Z,11.57
2018-10-11T12:19:21.063Z,12.98
2018-10-11T12:21:50.013Z,12.00
2018-10-11T12:24:33.297Z,11.80
2018-10-11T12:27:02.045Z,11.65
2018-10-11T12:29:30.758Z,10.75
2018-10-11T12:31:59.994Z,10.60
2018-10-11T12:34:28.955Z,11.45
2018-10-11T12:36:57.714Z,12.75
2018-10-11T12:39:26.437Z,12.33
2018-10-11T12:41:55.230Z,11.85
2018-10-11T12:44:24.954Z,12.53
2018-10-11T12:46:53.782Z,12.27
2018-10-11T12:49:22.814Z,11.97
2018-10-11T12:51:51.489Z,12.13
2018-10-11T12:54:20.360Z,11.57
2018-10-11T12:56:49.199Z,12.00
2018-10-11T12:59:17.920Z,13.00
2018-10-11T13:01:46.787Z,12.57
2018-10-11T13:04:15.575Z,12.30
2018-10-11T13:06:44.422Z,12.00
2018-10-11T13:09:13.215Z,12.27
2018-10-11T13:11:41.996Z,11.73
2018-10-11T13:14:10.684Z,12.97
2018-10-11T13:16:39.841Z,12.13
2018-10-11T13:19:08.589Z,11.83
2018-10-11T13:21:38.798Z,11.37
2018-10-11T13:24:07.563Z,11.57
2018-10-11T13:26:36.814Z,11.40
2018-10-11T13:29:05.851Z,11.40
2018-10-11T13:31:34.480Z,12.00
2018-10-11T13:34:06.959Z,12.40
2018-10-11T13:36:43.662Z,11.67
2018-10-11T13:39:12.595Z,11.07
2018-10-11T13:41:53.379Z,11.93
2018-10-11T13:44:22.131Z,11.60
2018-10-11T13:46:51.125Z,10.97
2018-10-11T13:49:21.157Z,12.17
2018-10-11T13:51:49.870Z,14.07
2018-10-11T13:54:19.730Z,13.27
2018-10-11T13:56:55.532Z,12.33
2018-10-11T13:59:17.745Z,13.70
2018-10-11T14:01:46.642Z,11.70
2018-10-11T14:04:17.568Z,12.33
2018-10-11T14:06:46.327Z,12.33
2018-10-11T14:09:16.107Z,14.47
2018-10-11T14:11:47.070Z,12.40
2018-10-11T14:14:19.426Z,14.37
2018-10-11T14:16:48.191Z,11.70
2018-10-11T14:19:17.320Z,13.57
2018-10-11T14:21:46.018Z,12.37
2018-10-11T14:24:14.804Z,16.33
2018-10-11T14:26:43.615Z,13.40
2018-10-11T14:29:12.553Z,14.63
2018-10-11T14:31:41.314Z,12.00
2018-10-11T14:34:10.484Z,12.67
2018-10-11T14:36:40.402Z,15.07
2018-10-11T14:39:09.298Z,10.80
2018-10-11T14:41:37.990Z,14.13
2018-10-11T14:44:06.977Z,11.73
2018-10-11T14:46:35.764Z,13.77
2018-10-11T14:49:04.549Z,13.90
2018-10-11T14:51:33.281Z,11.97
2018-10-11T14:54:02.074Z,13.83
2018-10-11T14:56:30.908Z,15.23
2018-10-11T14:58:59.563Z,13.13
2018-10-11T15:01:28.285Z,12.20
2018-10-11T15:03:56.960Z,12.60
2018-10-11T15:06:25.645Z,13.17
2018-10-11T15:08:54.373Z,12.03
2018-10-11T15:11:23.220Z,12.83
2018-10-11T15:13:51.973Z,12.93
2018-10-11T15:16:20.957Z,13.40
2018-10-11T15:18:50.021Z,12.83
2018-10-11T15:21:19.231Z,13.07
2018-10-11T15:23:48.039Z,12.67
2018-10-11T15:26:16.768Z,15.77
2018-10-11T15:28:45.419Z,12.30
2018-10-11T15:31:14.145Z,13.47
2018-10-11T15:33:43.262Z,14.50
2018-10-11T15:36:11.934Z,13.13
2018-10-11T15:38:40.794Z,15.67
2018-10-11T15:41:09.594Z,13.60
2018-10-11T15:43:38.404Z,13.27
2018-10-11T15:46:08.877Z,13.30
2018-10-11T15:48:37.610Z,12.70
2018-10-11T15:51:06.310Z,14.20
2018-10-11T15:53:36.545Z,14.57
2018-10-11T15:56:05.307Z,15.07
2018-10-11T15:58:34.040Z,15.13
2018-10-11T16:01:02.869Z,16.13
2018-10-11T16:03:31.547Z,16.40
2018-10-11T16:06:00.276Z,16.87
2018-10-11T16:08:28.965Z,15.73
2018-10-11T16:10:57.811Z,16.83
2018-10-11T16:13:27.107Z,16.57
2018-10-11T16:15:55.866Z,15.83
2018-10-11T16:18:24.551Z,16.23
2018-10-11T16:20:53.380Z,15.93
2018-10-11T16:23:22.084Z,16.60
2018-10-11T16:25:50.686Z,16.23
2018-10-11T16:28:19.411Z,17.27
2018-10-11T16:30:48.147Z,18.47
2018-10-11T16:33:16.966Z,17.37
2018-10-11T16:35:45.674Z,17.27
2018-10-11T16:38:14.510Z,17.63
2018-10-11T16:40:43.242Z,17.53
2018-10-11T16:43:12.013Z,19.83
2018-10-11T16:45:41.425Z,16.77
2018-10-11T16:48:10.131Z,23.43
2018-10-11T16:50:38.982Z,19.17
2018-10-11T16:53:07.917Z,17.63
2018-10-11T16:55:36.640Z,17.37
2018-10-11T16:58:05.591Z,19.33
2018-10-11T17:00:35.594Z,26.77
2018-10-11T17:03:04.672Z,27.47
2018-10-11T17:05:34.050Z,26.53
2018-10-11T17:08:02.723Z,24.07
2018-10-11T17:10:31.702Z,21.77
2018-10-11T17:13:00.454Z,22.60
2018-10-11T17:15:29.166Z,29.50
2018-10-11T17:17:58.309Z,22.00
2018-10-11T17:20:27.028Z,23.03
2018-10-11T17:22:55.798Z,40.10
2018-10-11T17:25:24.571Z,25.90
2018-10-11T17:27:53.379Z,25.30
2018-10-11T17:30:23.434Z,23.93
2018-10-11T17:32:57.585Z,22.10
2018-10-11T17:35:26.379Z,24.50
2018-10-11T17:37:55.083Z,26.27
2018-10-11T17:40:23.784Z,35.53
2018-10-11T17:42:52.661Z,34.70
2018-10-11T17:45:21.317Z,29.27
2018-10-11T17:47:50.026Z,26.17
2018-10-11T17:50:18.784Z,23.57
2018-10-11T17:52:48.162Z,22.07
2018-10-11T17:55:17.341Z,20.70
2018-10-11T17:57:46.800Z,21.77
2018-10-11T18:00:15.486Z,22.67
2018-10-11T18:02:44.633Z,22.10
2018-10-11T18:05:13.435Z,19.43
2018-10-11T18:07:42.170Z,19.77
2018-10-11T18:10:10.999Z,19.87
2018-10-11T18:12:39.742Z,21.10
2018-10-11T18:15:08.640Z,21.57
2018-10-11T18:17:37.364Z,20.97
2018-10-11T18:20:06.577Z,21.60
2018-10-11T18:22:35.350Z,23.00
2018-10-11T18:25:04.457Z,22.67
2018-10-11T18:27:33.198Z,25.77
2018-10-11T18:30:02.001Z,27.77
2018-10-11T18:32:30.683Z,25.37
2018-10-11T18:34:59.297Z,25.80
2018-10-11T18:37:27.957Z,35.57
2018-10-11T18:39:56.665Z,46.73
2018-10-11T18:42:25.393Z,29.13
2018-10-11T18:44:54.346Z,28.20
2018-10-11T18:47:23.047Z,25.83
2018-10-11T18:49:51.840Z,25.40
2018-10-11T18:52:20.621Z,23.37
2018-10-11T18:54:50.318Z,22.60
2018-10-11T18:57:19.059Z,21.93
2018-10-11T18:59:47.754Z,20.20
2018-10-11T19:02:16.538Z,21.57
2018-10-11T19:04:45.368Z,21.50
2018-10-11T19:07:14.059Z,21.40
2018-10-11T19:09:42.838Z,20.07
2018-10-11T19:12:11.887Z,20.80
2018-10-11T19:14:40.614Z,19.80
2018-10-11T19:17:09.504Z,20.70
2018-10-11T19:19:38.229Z,20.03
2018-10-11T19:22:07.030Z,20.13
2018-10-11T19:24:35.764Z,19.97
2018-10-11T19:27:04.521Z,20.10
2018-10-11T19:29:33.239Z,20.80
2018-10-11T19:32:02.132Z,23.43
2018-10-11T19:34:31.110Z,22.10
2018-10-11T19:36:59.909Z,21.33
2018-10-11T19:39:28.881Z,25.20
2018-10-11T19:41:57.469Z,24.57
2018-10-11T19:44:26.333Z,24.60
2018-10-11T19:46:55.074Z,23.30
2018-10-11T19:49:24.087Z,23.33
2018-10-11T19:51:53.246Z,24.10
2018-10-11T19:54:21.974Z,23.07
2018-10-11T19:56:50.697Z,23.90
2018-10-11T19:59:20.615Z,24.63
2018-10-11T20:01:49.288Z,24.70
2018-10-11T20:04:17.941Z,24.33
2018-10-11T20:06:46.650Z,23.60
2018-10-11T20:09:15.500Z,24.40
2018-10-11T20:11:44.405Z,24.27
2018-10-11T20:14:13.154Z,22.67
2018-10-11T20:16:42.207Z,23.40
2018-10-11T20:19:10.925Z,24.07
2018-10-11T20:21:39.922Z,24.77
2018-10-11T20:24:08.607Z,25.00
2018-10-11T20:26:37.329Z,25.30
2018-10-11T20:29:06.198Z,25.43
2018-10-11T20:31:34.872Z,24.43
2018-10-11T20:34:03.600Z,26.50
2018-10-11T20:36:32.357Z,24.87
2018-10-11T20:39:01.090Z,25.07
2018-10-11T20:41:29.792Z,25.60
2018-10-11T20:43:58.442Z,25.30
2018-10-11T20:46:27.174Z,23.03
2018-10-11T20:48:55.922Z,24.23
2018-10-11T20:51:24.632Z,24.90
2018-10-11T20:53:53.537Z,24.13
2018-10-11T20:56:22.463Z,27.40
2018-10-11T20:58:51.253Z,23.27
2018-10-11T21:01:20.166Z,23.50
2018-10-11T21:03:48.895Z,22.63
2018-10-11T21:06:17.965Z,22.70
2018-10-11T21:08:54.813Z,23.30
2018-10-11T21:11:23.541Z,19.83
2018-10-11T21:13:53.273Z,19.27
2018-10-11T21:16:22.410Z,17.20
2018-10-11T21:18:53.964Z,18.17
2018-10-11T21:21:22.742Z,17.67
2018-10-11T21:23:51.990Z,18.20
2018-10-11T21:26:20.862Z,18.27
2018-10-11T21:28:49.542Z,17.73
2018-10-11T21:31:18.343Z,17.33
2018-10-11T21:33:47.068Z,16.97
2018-10-11T21:36:15.804Z,16.67
2018-10-11T21:38:44.738Z,15.80
2018-10-11T21:41:13.522Z,15.97
2018-10-11T21:43:42.249Z,16.03
2018-10-11T21:46:10.990Z,15.23
2018-10-11T21:48:40.626Z,16.13
2018-10-11T21:51:09.386Z,16.80
2018-10-11T21:53:38.102Z,16.57
2018-10-11T21:56:06.866Z,16.50
2018-10-11T21:58:35.702Z,17.73
2018-10-11T22:01:09.845Z,17.27
2018-10-11T22:03:38.654Z,15.63
2018-10-11T22:06:07.583Z,15.80
2018-10-11T22:08:36.764Z,16.27
2018-10-11T22:11:05.586Z,17.93
2018-10-11T22:13:34.360Z,16.67
2018-10-11T22:16:03.058Z,16.53
2018-10-11T22:18:31.844Z,16.53
2018-10-11T22:21:00.675Z,17.43
2018-10-11T22:23:29.408Z,17.50
2018-10-11T22:25:58.269Z,19.50
2018-10-11T22:28:27.069Z,19.97
2018-10-11T22:30:55.852Z,18.70
2018-10-11T22:33:25.507Z,19.10
2018-10-11T22:35:54.251Z,18.37
2018-10-11T22:38:23.082Z,17.63
2018-10-11T22:40:51.896Z,18.23
2018-10-11T22:43:20.576Z,18.83
2018-10-11T22:45:49.321Z,20.43
2018-10-11T22:48:18.269Z,33.13
2018-10-11T22:50:47.047Z,20.43
2018-10-11T22:53:15.788Z,19.30
2018-10-11T22:55:44.497Z,19.53
2018-10-11T22:58:13.196Z,19.87
2018-10-11T23:00:41.877Z,19.30
2018-10-11T23:03:10.523Z,18.67
2018-10-11T23:05:39.213Z,17.87
2018-10-11T23:08:07.940Z,18.63
2018-10-11T23:10:36.593Z,18.87
2018-10-11T23:13:05.384Z,18.27
2018-10-11T23:15:34.170Z,18.83
2018-10-11T23:18:03.114Z,18.17
2018-10-11T23:20:31.762Z,19.17
2018-10-11T23:23:00.426Z,18.13
2018-10-11T23:25:29.055Z,18.33
2018-10-11T23:27:57.792Z,17.40
2018-10-11T23:30:26.520Z,19.03
2018-10-11T23:32:55.188Z,21.93
2018-10-11T23:35:23.913Z,18.40
2018-10-11T23:37:52.629Z,19.10
2018-10-11T23:40:21.294Z,19.43
2018-10-11T23:42:49.972Z,18.37
2018-10-11T23:45:18.668Z,18.00
2018-10-11T23:47:47.336Z,18.67
2018-10-11T23:50:16.005Z,18.50
2018-10-11T23:52:44.687Z,19.70
2018-10-11T23:55:13.329Z,19.47
2018-10-11T23:57:42.042Z,19.17
